Time;durP1;ratioP1;P1;durP2;ratioP2;P2;SDS_P1;SDS_P2;PMS_P1;PMS_P2;Temp;Humidity;BMP_temperature;BMP_pressure;BME280_temperature;BME280_humidity;BME280_pressure;Samples;Min_cycle;Max_cycle;Signal;HPM_P1;HPM_P2
2023/12/19 00:02:11;;;;;;;95.73;89.17;;;7.00;99.90;;;;;;5047783;28;20037;-72
2023/12/19 00:04:37;;;;;;;121.72;114.00;;;6.80;99.90;;;;;;5033304;28;20502;-71
2023/12/19 00:07:03;;;;;;;90.50;84.27;;;6.70;99.90;;;;;;5040987;28;20032;-72
2023/12/19 00:09:29;;;;;;;115.50;108.17;;;6.70;99.90;;;;;;5043429;28;20045;-74
2023/12/19 00:11:55;;;;;;;83.50;77.73;;;6.70;99.90;;;;;;5033766;28;20515;-73
2023/12/19 00:14:21;;;;;;;59.03;54.20;;;6.80;99.90;;;;;;5047076;28;20026;-74
2023/12/19 00:16:47;;;;;;;54.43;50.13;;;6.70;99.90;;;;;;5031641;28;20033;-74
2023/12/19 00:19:14;;;;;;;49.17;44.83;;;6.60;99.90;;;;;;5031661;28;20045;-74
2023/12/19 00:21:40;;;;;;;45.30;41.33;;;6.60;99.90;;;;;;5032774;28;20037;-74
2023/12/19 00:24:06;;;;;;;44.97;40.97;;;6.70;99.90;;;;;;5051626;28;20504;-74
2023/12/19 00:26:32;;;;;;;44.23;40.33;;;6.60;99.90;;;;;;5035983;28;20025;-74
2023/12/19 00:28:58;;;;;;;43.37;39.37;;;6.60;99.90;;;;;;5033669;28;20044;-74
2023/12/19 00:31:26;;;;;;;44.93;41.07;;;6.70;99.90;;;;;;5032216;28;20056;-74
2023/12/19 00:33:52;;;;;;;49.80;45.80;;;6.60;99.90;;;;;;5050896;28;20033;-73
2023/12/19 00:36:19;;;;;;;49.33;45.33;;;6.50;99.90;;;;;;5033965;28;20029;-73
2023/12/19 00:38:45;;;;;;;45.80;41.50;;;6.60;99.90;;;;;;5035333;28;20049;-74
2023/12/19 00:41:11;;;;;;;45.83;42.03;;;6.60;99.90;;;;;;5039661;28;20029;-73
2023/12/19 00:43:37;;;;;;;45.00;41.22;;;6.60;99.90;;;;;;5042166;28;20347;-74
2023/12/19 00:46:04;;;;;;;43.30;39.43;;;6.60;99.90;;;;;;5038592;28;20395;-74
2023/12/19 00:48:31;;;;;;;42.17;38.40;;;6.60;99.90;;;;;;5038932;28;20036;-73
2023/12/19 00:50:57;;;;;;;45.60;41.70;;;6.70;99.90;;;;;;5040739;28;20029;-74
2023/12/19 00:53:23;;;;;;;45.97;41.87;;;6.70;99.90;;;;;;5045646;28;20033;-74
2023/12/19 00:55:49;;;;;;;63.33;58.70;;;6.70;99.90;;;;;;5037546;28;20524;-74
2023/12/19 00:58:15;;;;;;;70.53;65.43;;;6.90;99.90;;;;;;5047539;28;20033;-74
2023/12/19 01:00:42;;;;;;;64.47;59.85;;;7.00;99.90;;;;;;5034253;28;20478;-74
2023/12/19 01:03:08;;;;;;;56.67;52.00;;;7.00;99.90;;;;;;5041957;28;20045;-72
2023/12/19 01:05:34;;;;;;;86.07;80.43;;;6.90;99.90;;;;;;5053531;28;20044;-74
2023/12/19 01:08:00;;;;;;;112.43;105.10;;;7.00;99.90;;;;;;5037549;28;20029;-74
2023/12/19 01:10:26;;;;;;;93.30;87.13;;;7.10;99.90;;;;;;5036411;28;20037;-74
2023/12/19 01:12:52;;;;;;;97.27;90.87;;;7.10;99.90;;;;;;5047291;28;20037;-71
2023/12/19 01:15:18;;;;;;;88.63;82.00;;;7.10;99.90;;;;;;5016840;28;20489;-72
2023/12/19 01:17:44;;;;;;;108.20;101.13;;;7.10;99.90;;;;;;5038414;28;20021;-72
2023/12/19 01:20:11;;;;;;;86.50;80.75;;;7.10;99.90;;;;;;5053224;28;20045;-71
2023/12/19 01:22:37;;;;;;;73.90;68.57;;;7.20;99.90;;;;;;5044235;28;20046;-72
2023/12/19 01:25:03;;;;;;;47.43;43.57;;;7.30;99.90;;;;;;5046930;28;20045;-72
2023/12/19 01:27:29;;;;;;;54.08;49.70;;;7.30;99.90;;;;;;5035126;28;20481;-72
2023/12/19 01:29:55;;;;;;;45.35;41.63;;;7.20;99.90;;;;;;5052063;28;20048;-72
2023/12/19 01:32:21;;;;;;;50.33;46.28;;;7.20;99.90;;;;;;5051779;28;20457;-72
2023/12/19 01:34:48;;;;;;;64.80;60.30;;;7.20;99.90;;;;;;5041788;28;20042;-72
2023/12/19 01:37:14;;;;;;;53.42;49.13;;;7.20;99.90;;;;;;5047992;28;20032;-71
2023/12/19 01:39:40;;;;;;;61.92;57.25;;;7.20;99.90;;;;;;5049883;28;20036;-71
2023/12/19 01:42:06;;;;;;;78.07;72.70;;;7.20;99.90;;;;;;5039060;28;20078;-72
2023/12/19 01:44:32;;;;;;;68.90;63.83;;;7.20;99.90;;;;;;5034252;28;20371;-72
2023/12/19 01:46:58;;;;;;;119.20;111.75;;;7.10;99.90;;;;;;5037426;28;20034;-72
2023/12/19 01:49:24;;;;;;;145.17;136.43;;;7.20;99.90;;;;;;5036496;28;20401;-72
2023/12/19 01:51:51;;;;;;;195.85;184.68;;;7.20;99.90;;;;;;5041935;28;20037;-72
2023/12/19 01:54:17;;;;;;;204.07;192.52;;;7.20;99.90;;;;;;5032793;28;20052;-72
2023/12/19 01:56:43;;;;;;;172.77;162.73;;;7.20;99.90;;;;;;5036016;28;20382;-72
2023/12/19 01:59:10;;;;;;;181.93;171.57;;;7.40;99.90;;;;;;5051695;28;20036;-71
2023/12/19 02:01:36;;;;;;;244.65;230.82;;;7.50;99.90;;;;;;5035028;28;20500;-72
2023/12/19 02:04:02;;;;;;;241.13;227.40;;;7.40;99.90;;;;;;5041003;28;20033;-72
2023/12/19 02:06:28;;;;;;;206.77;195.00;;;7.40;99.90;;;;;;5032791;28;20040;-72
2023/12/19 02:08:54;;;;;;;143.32;134.73;;;7.40;99.90;;;;;;5017611;28;20398;-72
2023/12/19 02:11:20;;;;;;;150.48;141.80;;;7.50;99.90;;;;;;5053088;28;20036;-72
2023/12/19 02:13:46;;;;;;;106.40;99.82;;;7.50;99.90;;;;;;5045391;28;20033;-72
2023/12/19 02:16:13;;;;;;;109.38;102.63;;;7.60;99.90;;;;;;5031515;28;20052;-72
2023/12/19 02:18:39;;;;;;;115.00;108.03;;;7.60;99.90;;;;;;5032983;28;20052;-72
2023/12/19 02:21:05;;;;;;;122.75;115.43;;;7.60;99.90;;;;;;5033104;28;20044;-74
2023/12/19 02:23:31;;;;;;;134.55;126.63;;;7.60;99.90;;;;;;5047177;28;20060;-74
2023/12/19 02:25:57;;;;;;;127.43;119.80;;;7.50;99.90;;;;;;5041243;28;20029;-74
2023/12/19 02:28:23;;;;;;;125.18;117.75;;;7.60;99.90;;;;;;5050485;28;20025;-74
2023/12/19 02:30:49;;;;;;;130.38;122.38;;;7.60;99.90;;;;;;5047820;28;20038;-74
2023/12/19 02:33:16;;;;;;;76.72;71.47;;;7.60;99.90;;;;;;5032949;28;20367;-74
2023/12/19 02:35:42;;;;;;;101.78;95.28;;;7.70;99.90;;;;;;5033332;28;20032;-74
2023/12/19 02:38:08;;;;;;;89.03;83.45;;;7.70;99.90;;;;;;5043552;28;20389;-74
2023/12/19 02:40:34;;;;;;;108.37;101.93;;;7.70;99.90;;;;;;5051061;28;20029;-74
2023/12/19 02:43:01;;;;;;;123.88;116.57;;;7.70;99.90;;;;;;5047106;28;20037;-74
2023/12/19 02:45:31;;;;;;;115.35;108.55;;;7.60;99.90;;;;;;5034072;28;20041;-74
2023/12/19 02:47:58;;;;;;;112.78;106.07;;;7.70;99.90;;;;;;5048118;28;20037;-74
2023/12/19 02:50:24;;;;;;;101.63;95.55;;;7.70;99.90;;;;;;5036762;28;20056;-74
2023/12/19 02:52:50;;;;;;;73.28;68.18;;;7.70;99.90;;;;;;5034824;28;20029;-74
2023/12/19 02:55:16;;;;;;;57.70;53.65;;;7.80;99.90;;;;;;5051628;28;20040;-74
2023/12/19 02:57:42;;;;;;;87.63;82.25;;;7.90;99.90;;;;;;5033114;28;20026;-74
2023/12/19 03:00:09;;;;;;;90.68;85.13;;;7.90;99.90;;;;;;5031942;28;20041;-73
2023/12/19 03:02:35;;;;;;;90.80;85.25;;;7.90;99.90;;;;;;5037551;28;20021;-74
2023/12/19 03:05:01;;;;;;;86.60;81.25;;;7.90;99.90;;;;;;5050007;28;20041;-74
2023/12/19 03:07:27;;;;;;;40.78;37.58;;;7.80;99.90;;;;;;5032045;28;20037;-74
2023/12/19 03:09:53;;;;;;;40.78;37.78;;;7.90;99.90;;;;;;5032385;28;20037;-74
2023/12/19 03:12:20;;;;;;;36.03;33.47;;;8.00;99.90;;;;;;5036249;28;20052;-74
2023/12/19 03:14:46;;;;;;;39.60;36.40;;;8.00;99.90;;;;;;5046571;28;20452;-74
2023/12/19 03:17:12;;;;;;;39.00;36.05;;;8.10;99.90;;;;;;5051103;28;20029;-74
2023/12/19 03:19:38;;;;;;;35.05;32.50;;;8.00;99.90;;;;;;5051929;28;20398;-74
2023/12/19 03:22:07;;;;;;;34.67;32.13;;;8.10;99.90;;;;;;5042105;28;20044;-76
2023/12/19 03:24:33;;;;;;;34.13;31.23;;;8.10;99.90;;;;;;5041560;28;20371;-71
2023/12/19 03:26:59;;;;;;;33.00;30.58;;;8.10;99.90;;;;;;5033211;28;20048;-72
2023/12/19 03:29:25;;;;;;;32.72;30.20;;;8.20;99.90;;;;;;5036017;28;20032;-72
2023/12/19 03:31:51;;;;;;;33.10;30.60;;;8.10;99.90;;;;;;5035892;28;20155;-72
2023/12/19 03:34:18;;;;;;;33.78;30.98;;;8.10;99.90;;;;;;5031101;28;20033;-72
2023/12/19 03:36:44;;;;;;;38.42;35.38;;;8.20;99.90;;;;;;5031794;28;20038;-72
2023/12/19 03:39:10;;;;;;;54.50;50.92;;;8.20;99.90;;;;;;5031730;28;20402;-71
2023/12/19 03:41:36;;;;;;;45.08;41.88;;;8.10;99.90;;;;;;5043509;28;20051;-72
2023/12/19 03:44:02;;;;;;;50.15;46.80;;;8.10;99.90;;;;;;5051555;28;20049;-72
2023/12/19 03:46:28;;;;;;;68.70;64.70;;;8.10;99.90;;;;;;5049506;28;20033;-70
2023/12/19 03:48:54;;;;;;;54.28;50.67;;;8.00;99.90;;;;;;5040381;28;20033;-72
2023/12/19 03:51:20;;;;;;;52.20;48.90;;;8.00;99.90;;;;;;5031596;28;20052;-72
2023/12/19 03:53:46;;;;;;;73.50;68.97;;;8.10;99.90;;;;;;5037228;28;20033;-72
2023/12/19 03:56:12;;;;;;;91.82;86.32;;;8.10;99.90;;;;;;5051688;28;20041;-72
2023/12/19 03:58:42;;;;;;;84.60;79.45;;;8.10;99.90;;;;;;5050650;28;20037;-72
2023/12/19 04:01:10;;;;;;;92.65;87.22;;;8.00;99.90;;;;;;5050679;28;20481;-72
2023/12/19 04:03:36;;;;;;;92.55;87.43;;;8.00;99.90;;;;;;5049705;28;20049;-72
2023/12/19 04:06:02;;;;;;;80.45;75.70;;;8.00;99.90;;;;;;5051308;28;20040;-72
2023/12/19 04:08:28;;;;;;;66.88;62.72;;;8.00;99.90;;;;;;5050701;28;20021;-70
2023/12/19 04:10:54;;;;;;;71.35;66.93;;;8.00;99.90;;;;;;5049996;28;20029;-72
2023/12/19 04:13:20;;;;;;;58.15;54.55;;;8.10;99.90;;;;;;5051348;28;20041;-72
2023/12/19 04:15:46;;;;;;;60.20;56.30;;;8.10;99.90;;;;;;5046523;28;20044;-72
2023/12/19 04:18:14;;;;;;;49.45;46.28;;;8.10;99.90;;;;;;5031663;28;20040;-71
2023/12/19 04:20:40;;;;;;;52.45;49.10;;;8.10;99.90;;;;;;5033242;28;20033;-71
2023/12/19 04:23:06;;;;;;;61.05;57.22;;;8.10;99.90;;;;;;5035801;28;20041;-72
2023/12/19 04:25:32;;;;;;;75.07;70.57;;;8.10;99.90;;;;;;5035425;28;20034;-74
2023/12/19 04:27:58;;;;;;;112.47;106.15;;;8.20;99.90;;;;;;5050869;28;20486;-74
2023/12/19 04:30:25;;;;;;;114.72;108.25;;;8.20;99.90;;;;;;5049980;28;20040;-74
2023/12/19 04:32:52;;;;;;;100.30;94.50;;;8.20;99.90;;;;;;5035957;28;20042;-74
2023/12/19 04:35:18;;;;;;;102.60;96.80;;;8.20;99.90;;;;;;5041291;28;20037;-75
2023/12/19 04:37:44;;;;;;;111.97;105.55;;;8.20;99.90;;;;;;5051727;28;20021;-74
2023/12/19 04:40:11;;;;;;;117.05;110.50;;;8.30;99.90;;;;;;5036238;28;20045;-74
2023/12/19 04:42:37;;;;;;;117.32;110.85;;;8.30;99.90;;;;;;5036752;28;20033;-74
2023/12/19 04:45:03;;;;;;;89.32;84.32;;;8.20;99.90;;;;;;5053052;28;20041;-74
2023/12/19 04:47:29;;;;;;;102.03;96.35;;;8.20;99.90;;;;;;5052161;28;20412;-74
2023/12/19 04:49:55;;;;;;;102.10;96.13;;;8.20;99.90;;;;;;5055589;28;20029;-74
2023/12/19 04:52:21;;;;;;;110.10;104.13;;;8.10;99.90;;;;;;5054887;28;20033;-73
2023/12/19 04:54:48;;;;;;;123.88;117.10;;;8.20;99.90;;;;;;5055176;28;20033;-74
2023/12/19 04:57:14;;;;;;;117.57;111.30;;;8.20;99.90;;;;;;5053861;28;20037;-74
2023/12/19 04:59:40;;;;;;;106.35;100.50;;;8.20;99.90;;;;;;5054065;28;20029;-74
2023/12/19 05:02:06;;;;;;;104.03;98.18;;;8.20;99.90;;;;;;5039832;28;20042;-74
2023/12/19 05:04:32;;;;;;;90.43;85.20;;;8.20;99.90;;;;;;5054669;28;20060;-74
2023/12/19 05:06:59;;;;;;;99.30;93.93;;;8.20;99.90;;;;;;5054677;28;20036;-74
2023/12/19 05:09:28;;;;;;;96.40;90.93;;;8.20;99.90;;;;;;5054384;28;20044;-74
2023/12/19 05:11:54;;;;;;;88.97;84.00;;;8.30;99.90;;;;;;5054037;28;20058;-74
2023/12/19 05:14:20;;;;;;;83.82;78.93;;;8.30;99.90;;;;;;5054953;28;20044;-74
2023/12/19 05:16:46;;;;;;;69.57;65.50;;;8.30;99.90;;;;;;5040960;28;20034;-74
2023/12/19 05:19:12;;;;;;;73.07;68.78;;;8.30;99.90;;;;;;5034822;28;20053;-74
2023/12/19 05:21:38;;;;;;;60.22;56.50;;;8.30;99.90;;;;;;5034492;28;20032;-73
2023/12/19 05:24:05;;;;;;;170.15;59.35;;;8.20;99.90;;;;;;5034691;28;20064;-73
2023/12/19 05:26:31;;;;;;;87.75;61.25;;;8.20;99.90;;;;;;5032372;28;20497;-73
2023/12/19 05:28:57;;;;;;;61.13;57.30;;;8.20;99.90;;;;;;5038531;28;20053;-71
2023/12/19 05:31:23;;;;;;;64.82;60.75;;;8.20;99.90;;;;;;5050903;28;20401;-72
2023/12/19 05:33:49;;;;;;;142.98;70.10;;;8.20;99.90;;;;;;5053350;28;20040;-70
2023/12/19 05:36:15;;;;;;;90.10;84.95;;;8.20;99.90;;;;;;5044788;28;20534;-71
2023/12/19 05:38:42;;;;;;;101.53;95.95;;;8.30;99.90;;;;;;5036425;28;20413;-71
2023/12/19 05:41:09;;;;;;;95.70;90.35;;;8.30;99.90;;;;;;5042031;28;20029;-71
2023/12/19 05:43:35;;;;;;;75.75;71.28;;;8.30;99.90;;;;;;5037607;28;20381;-71
2023/12/19 05:46:02;;;;;;;74.97;70.68;;;8.30;99.90;;;;;;5038430;28;20055;-71
2023/12/19 05:48:28;;;;;;;52.58;48.78;;;8.30;99.90;;;;;;5054238;28;20032;-71
2023/12/19 05:50:54;;;;;;;45.95;42.53;;;8.40;99.90;;;;;;5035897;28;20032;-71
2023/12/19 05:53:21;;;;;;;50.05;46.50;;;8.40;99.90;;;;;;5052832;28;20477;-71
2023/12/19 05:55:47;;;;;;;354.45;63.08;;;8.40;99.90;;;;;;5047434;28;20032;-71
2023/12/19 05:58:13;;;;;;;97.70;92.38;;;8.30;99.90;;;;;;5053974;28;20033;-71
2023/12/19 06:00:40;;;;;;;56.53;53.05;;;8.40;99.90;;;;;;5039894;28;20041;-71
2023/12/19 06:03:06;;;;;;;190.85;95.63;;;8.40;99.90;;;;;;5033937;28;20036;-71
2023/12/19 06:05:32;;;;;;;64.50;60.75;;;8.40;99.90;;;;;;5032296;28;20490;-71
2023/12/19 06:08:00;;;;;;;57.85;54.30;;;8.40;99.90;;;;;;5033933;28;20060;-71
2023/12/19 06:10:27;;;;;;;48.47;45.50;;;8.40;99.90;;;;;;5033803;28;20046;-71
2023/12/19 06:12:53;;;;;;;59.22;55.55;;;8.30;99.90;;;;;;5039905;28;20025;-72
2023/12/19 06:15:19;;;;;;;40.33;36.88;;;8.40;99.90;;;;;;5051661;28;20059;-71
2023/12/19 06:17:46;;;;;;;38.00;35.50;;;8.40;99.90;;;;;;5053437;28;20044;-71
2023/12/19 06:20:12;;;;;;;39.30;36.70;;;8.40;99.90;;;;;;5048453;28;20052;-72
2023/12/19 06:22:38;;;;;;;54.53;51.17;;;8.40;99.90;;;;;;5053194;28;20032;-72
2023/12/19 06:25:06;;;;;;;44.75;41.88;;;8.40;99.90;;;;;;5052089;28;20374;-72
2023/12/19 06:27:35;;;;;;;305.30;61.63;;;8.50;99.90;;;;;;5052024;28;20040;-72
2023/12/19 06:30:02;;;;;;;53.58;50.40;;;8.50;99.90;;;;;;5052267;28;20029;-74
2023/12/19 06:32:29;;;;;;;46.35;43.15;;;8.40;99.90;;;;;;5015383;28;20040;-71
2023/12/19 06:34:55;;;;;;;52.63;49.28;;;8.40;99.90;;;;;;5033216;28;20030;-72
2023/12/19 06:37:21;;;;;;;62.55;58.78;;;8.50;99.90;;;;;;5031950;28;20037;-72
2023/12/19 06:39:47;;;;;;;50.17;47.03;;;8.50;99.90;;;;;;5033179;28;20021;-71
2023/12/19 06:42:13;;;;;;;50.08;46.78;;;8.40;99.90;;;;;;5035315;28;20049;-74
2023/12/19 06:44:39;;;;;;;51.47;48.45;;;8.40;99.90;;;;;;5046623;28;20044;-74
2023/12/19 06:47:06;;;;;;;52.38;48.63;;;8.40;99.90;;;;;;5047774;28;20048;-74
2023/12/19 06:49:32;;;;;;;51.10;47.88;;;8.40;99.90;;;;;;5052821;28;20044;-74
2023/12/19 06:51:58;;;;;;;63.97;60.10;;;8.40;99.90;;;;;;5052779;28;20036;-73
2023/12/19 06:54:24;;;;;;;66.70;62.83;;;8.40;99.90;;;;;;5052638;28;20029;-73
2023/12/19 06:56:51;;;;;;;57.65;53.08;;;8.40;99.90;;;;;;5035164;28;20036;-73
2023/12/19 06:59:17;;;;;;;60.08;56.33;;;8.50;99.90;;;;;;5044002;28;20033;-73
2023/12/19 07:01:44;;;;;;;58.95;55.30;;;8.50;99.90;;;;;;5049898;28;20036;-74
2023/12/19 07:04:10;;;;;;;78.43;73.88;;;8.50;99.90;;;;;;5032744;28;20042;-73
2023/12/19 07:06:36;;;;;;;91.95;84.50;;;8.50;99.90;;;;;;5031458;28;20029;-74
2023/12/19 07:09:02;;;;;;;98.50;93.03;;;8.50;99.90;;;;;;5041333;28;20045;-73
2023/12/19 07:11:29;;;;;;;55.22;51.85;;;8.50;99.90;;;;;;5040494;28;20033;-73
2023/12/19 07:13:56;;;;;;;57.30;53.83;;;8.40;99.90;;;;;;5032497;28;20029;-72
2023/12/19 07:16:22;;;;;;;51.42;48.33;;;8.50;99.90;;;;;;5031661;28;20044;-71
2023/12/19 07:18:48;;;;;;;43.08;40.15;;;8.40;99.90;;;;;;5047347;28;20041;-73
2023/12/19 07:21:24;;;;;;;47.47;44.28;;;8.40;99.90;;;;;;5045301;28;20053;-74
2023/12/19 07:23:51;;;;;;;39.00;36.30;;;8.50;99.90;;;;;;5049876;28;20049;-73
2023/12/19 07:26:23;;;;;;;42.65;39.72;;;8.50;99.90;;;;;;5043567;28;20041;-73
2023/12/19 07:28:50;;;;;;;41.92;38.83;;;8.50;99.90;;;;;;5032531;28;20029;-74
2023/12/19 07:31:34;;;;;;;38.60;35.97;;;8.50;99.90;;;;;;5031352;28;20397;-73
2023/12/19 07:34:03;;;;;;;41.05;38.20;;;8.50;99.90;;;;;;5038118;28;20036;-73
2023/12/19 07:36:30;;;;;;;43.65;40.53;;;8.50;99.90;;;;;;5044472;28;20378;-73
2023/12/19 07:38:56;;;;;;;45.20;41.53;;;8.50;99.90;;;;;;5052159;28;20052;-74
2023/12/19 07:41:23;;;;;;;47.67;44.35;;;8.50;99.90;;;;;;5051154;28;20060;-74
2023/12/19 07:44:21;;;;;;;47.63;44.50;;;8.50;99.90;;;;;;5050718;28;20059;-72
2023/12/19 07:46:52;;;;;;;49.38;46.13;;;8.50;99.90;;;;;;5029403;28;20045;-72
2023/12/19 07:49:18;;;;;;;51.22;48.00;;;8.50;99.90;;;;;;5050276;28;20029;-72
2023/12/19 07:51:44;;;;;;;51.05;47.28;;;8.50;99.90;;;;;;5050136;28;20412;-72
2023/12/19 07:54:10;;;;;;;50.88;47.47;;;8.50;99.90;;;;;;5032663;28;20044;-77
2023/12/19 07:56:43;;;;;;;53.88;50.45;;;8.50;99.90;;;;;;5050230;28;20478;-72
2023/12/19 07:59:12;;;;;;;48.92;45.63;;;8.50;99.90;;;;;;5051097;28;20044;-71
2023/12/19 08:01:40;;;;;;;55.55;52.10;;;8.40;99.90;;;;;;5051180;28;20033;-72
2023/12/19 08:04:06;;;;;;;55.42;51.88;;;8.50;99.90;;;;;;5051828;28;20017;-72
2023/12/19 08:06:32;;;;;;;52.90;49.35;;;8.50;99.90;;;;;;5030527;28;20513;-72
2023/12/19 08:08:59;;;;;;;45.17;41.88;;;8.50;99.90;;;;;;5031483;28;20029;-72
2023/12/19 08:11:25;;;;;;;56.35;52.92;;;8.50;99.90;;;;;;5041310;28;20512;-72
2023/12/19 08:13:52;;;;;;;56.83;53.33;;;8.50;99.90;;;;;;5050504;28;20037;-72
2023/12/19 08:16:18;;;;;;;56.55;53.10;;;8.60;99.90;;;;;;5051170;28;20036;-72
2023/12/19 08:18:44;;;;;;;67.28;63.40;;;8.50;99.90;;;;;;5037552;28;20049;-72
2023/12/19 08:21:10;;;;;;;84.10;78.95;;;8.60;99.90;;;;;;5036555;28;20033;-71
2023/12/19 08:23:37;;;;;;;85.03;80.30;;;8.60;99.90;;;;;;5050237;28;20037;-72
2023/12/19 08:26:03;;;;;;;84.75;79.90;;;8.60;99.90;;;;;;5051069;28;20056;-72
2023/12/19 08:28:29;;;;;;;76.95;72.50;;;8.60;99.90;;;;;;5050582;28;20385;-71
2023/12/19 08:30:55;;;;;;;107.65;101.75;;;8.70;99.90;;;;;;5041003;28;20033;-72
2023/12/19 08:33:21;;;;;;;135.70;128.13;;;8.70;99.90;;;;;;5051379;28;20389;-72
2023/12/19 08:35:47;;;;;;;127.25;120.20;;;8.70;99.90;;;;;;5043022;28;20024;-72
2023/12/19 08:38:13;;;;;;;136.98;129.48;;;8.70;99.90;;;;;;5049460;28;20025;-72
2023/12/19 08:40:39;;;;;;;145.55;137.70;;;8.60;99.90;;;;;;5049399;28;20029;-72
2023/12/19 08:43:05;;;;;;;139.13;131.75;;;8.70;99.90;;;;;;5049956;28;20524;-72
2023/12/19 08:45:31;;;;;;;138.35;130.85;;;8.70;99.90;;;;;;5049095;28;20045;-72
2023/12/19 08:47:58;;;;;;;126.28;119.20;;;8.70;99.90;;;;;;5029183;28;20710;-75
2023/12/19 08:50:25;;;;;;;129.90;122.60;;;8.70;99.90;;;;;;5030714;28;20025;-75
2023/12/19 08:52:52;;;;;;;126.72;119.85;;;8.70;99.90;;;;;;5050104;28;20045;-75
2023/12/19 08:55:20;;;;;;;120.90;114.43;;;8.70;99.90;;;;;;5032637;28;20038;-75
2023/12/19 08:57:46;;;;;;;122.10;115.32;;;8.80;99.90;;;;;;5032111;28;20049;-74
2023/12/19 09:00:16;;;;;;;92.57;87.22;;;8.70;99.90;;;;;;5046960;28;20068;-76
2023/12/19 09:02:44;;;;;;;93.20;87.93;;;8.80;99.90;;;;;;5031514;28;20037;-75
2023/12/19 09:05:17;;;;;;;110.97;104.90;;;8.80;99.90;;;;;;5030601;28;20034;-75
2023/12/19 09:07:43;;;;;;;106.25;100.30;;;8.80;99.90;;;;;;5034825;28;20049;-76
2023/12/19 09:10:11;;;;;;;101.13;95.22;;;8.80;99.90;;;;;;5032519;28;20046;-74
2023/12/19 09:12:37;;;;;;;105.20;99.30;;;8.70;99.90;;;;;;5034563;28;20378;-74
2023/12/19 09:15:05;;;;;;;117.93;111.63;;;8.80;99.90;;;;;;5034477;28;20032;-74
2023/12/19 09:17:31;;;;;;;110.97;104.82;;;8.80;99.90;;;;;;5053131;28;20059;-74
2023/12/19 09:19:58;;;;;;;116.80;110.57;;;8.90;99.90;;;;;;5054191;28;20045;-74
2023/12/19 09:22:25;;;;;;;103.05;97.05;;;8.90;99.90;;;;;;5038515;28;20490;-73
2023/12/19 09:24:52;;;;;;;110.43;104.05;;;8.90;99.90;;;;;;5037404;28;20037;-74
2023/12/19 09:27:18;;;;;;;102.95;97.28;;;8.90;99.90;;;;;;5046433;28;20025;-73
2023/12/19 09:29:44;;;;;;;109.30;103.28;;;8.90;99.90;;;;;;5040219;28;20036;-74
2023/12/19 09:32:12;;;;;;;117.68;111.10;;;8.90;99.90;;;;;;5044004;28;20041;-73
2023/12/19 09:34:40;;;;;;;77.35;72.63;;;9.00;99.90;;;;;;5034369;28;20049;-74
2023/12/19 09:37:06;;;;;;;86.53;81.55;;;9.00;99.90;;;;;;5033447;28;20496;-73
2023/12/19 09:39:32;;;;;;;89.03;83.70;;;9.00;99.90;;;;;;5034422;28;20497;-74
2023/12/19 09:41:58;;;;;;;82.07;77.28;;;9.00;99.90;;;;;;5042767;28;20047;-74
2023/12/19 09:44:25;;;;;;;98.43;93.00;;;9.00;99.90;;;;;;5046696;28;20021;-73
2023/12/19 09:46:52;;;;;;;104.80;98.70;;;8.90;99.90;;;;;;5042984;28;20045;-73
2023/12/19 09:49:41;;;;;;;82.22;77.32;;;9.00;99.90;;;;;;5054078;28;20033;-71
2023/12/19 09:52:08;;;;;;;74.53;70.22;;;9.00;99.90;;;;;;5039515;28;20036;-72
2023/12/19 09:54:35;;;;;;;98.88;93.43;;;9.00;99.90;;;;;;5014319;28;20030;-72
2023/12/19 09:57:01;;;;;;;90.95;85.80;;;9.00;99.90;;;;;;5022591;28;20033;-72
2023/12/19 09:59:28;;;;;;;75.40;71.10;;;9.00;99.90;;;;;;5024915;28;20032;-72
2023/12/19 10:01:54;;;;;;;86.22;81.25;;;9.00;99.90;;;;;;5051100;28;20037;-72
2023/12/19 10:04:20;;;;;;;95.50;89.95;;;9.00;99.90;;;;;;5042948;28;20034;-72
2023/12/19 10:06:56;;;;;;;77.18;72.38;;;9.00;99.90;;;;;;5014621;28;20493;-72
2023/12/19 10:09:22;;;;;;;74.05;69.60;;;9.00;99.90;;;;;;5032732;28;20025;-72
2023/12/19 10:12:11;;;;;;;81.93;77.15;;;9.00;99.90;;;;;;5036324;28;20036;-73
2023/12/19 10:14:40;;;;;;;79.95;75.25;;;9.10;99.90;;;;;;5052767;28;20386;-72
2023/12/19 10:17:12;;;;;;;81.38;76.38;;;9.10;99.90;;;;;;5031756;28;20030;-73
2023/12/19 10:19:38;;;;;;;72.78;67.97;;;9.10;99.90;;;;;;5046734;28;20045;-72
2023/12/19 10:22:08;;;;;;;78.53;73.90;;;9.10;99.90;;;;;;5036448;28;20030;-72
2023/12/19 10:24:34;;;;;;;93.35;87.82;;;9.10;99.90;;;;;;5037089;28;20052;-72
2023/12/19 10:27:01;;;;;;;70.60;66.25;;;9.10;99.90;;;;;;5051843;28;20045;-72
2023/12/19 10:29:28;;;;;;;78.82;74.13;;;9.10;99.90;;;;;;5053118;28;20029;-72
2023/12/19 10:31:54;;;;;;;69.55;65.07;;;9.20;99.90;;;;;;5051196;28;20037;-72
2023/12/19 10:34:22;;;;;;;58.88;54.78;;;9.20;99.90;;;;;;5047717;28;20036;-72
2023/12/19 10:36:48;;;;;;;53.55;49.95;;;9.30;99.90;;;;;;5009398;28;20037;-72
2023/12/19 10:39:17;;;;;;;51.13;47.78;;;9.40;99.90;;;;;;5051782;28;20025;-72
2023/12/19 10:41:43;;;;;;;53.45;50.05;;;9.50;99.90;;;;;;5052645;28;20048;-72
2023/12/19 10:44:09;;;;;;;59.17;55.42;;;9.50;99.90;;;;;;5052107;28;20041;-73
2023/12/19 10:46:36;;;;;;;64.82;60.58;;;9.60;99.90;;;;;;5034992;28;20057;-72
2023/12/19 10:49:03;;;;;;;63.30;59.25;;;9.60;99.90;;;;;;5030091;28;20025;-72
2023/12/19 10:51:41;;;;;;;61.67;57.88;;;9.60;99.90;;;;;;5018136;28;20033;-72
2023/12/19 10:54:14;;;;;;;68.72;64.60;;;9.70;99.90;;;;;;5029202;28;20025;-72
2023/12/19 10:56:51;;;;;;;67.60;63.45;;;9.70;99.90;;;;;;5047978;28;20048;-74
2023/12/19 10:59:27;;;;;;;69.43;65.28;;;9.70;99.90;;;;;;5052526;28;20032;-72
2023/12/19 11:01:53;;;;;;;63.20;58.63;;;9.70;99.90;;;;;;5036618;28;20425;-73
2023/12/19 11:04:23;;;;;;;64.45;60.60;;;9.70;99.90;;;;;;5030841;28;20029;-74
2023/12/19 11:06:55;;;;;;;58.45;54.83;;;9.70;99.90;;;;;;5036408;28;20505;-74
2023/12/19 11:09:24;;;;;;;77.60;73.07;;;9.70;99.90;;;;;;5032676;28;20048;-74
2023/12/19 11:11:50;;;;;;;61.53;57.47;;;9.70;99.90;;;;;;5031809;28;20072;-73
2023/12/19 11:14:18;;;;;;;68.63;64.28;;;9.70;99.90;;;;;;5031984;28;20053;-74
2023/12/19 11:16:57;;;;;;;62.50;58.67;;;9.70;99.90;;;;;;5026375;28;20040;-74
2023/12/19 11:19:32;;;;;;;62.53;58.72;;;9.70;99.90;;;;;;5051273;28;20048;-74
2023/12/19 11:22:11;;;;;;;60.63;56.60;;;9.70;99.90;;;;;;5050268;28;20453;-74
2023/12/19 11:24:40;;;;;;;58.03;54.63;;;9.70;99.90;;;;;;5052398;28;20036;-74
2023/12/19 11:27:25;;;;;;;57.80;54.20;;;9.70;99.90;;;;;;5046537;28;20053;-74
2023/12/19 11:29:53;;;;;;;54.00;50.47;;;9.70;99.90;;;;;;5050657;28;20032;-73
2023/12/19 11:32:29;;;;;;;55.95;52.38;;;9.70;99.90;;;;;;5033348;28;20049;-74
2023/12/19 11:35:11;;;;;;;58.72;54.83;;;9.70;99.90;;;;;;5030738;28;20044;-73
2023/12/19 11:37:46;;;;;;;58.70;54.85;;;9.70;99.90;;;;;;5030534;28;20021;-73
2023/12/19 11:40:37;;;;;;;62.85;58.60;;;9.70;99.90;;;;;;5030366;28;20037;-73
2023/12/19 11:43:03;;;;;;;56.47;52.95;;;9.80;99.90;;;;;;5044858;28;20041;-73
2023/12/19 11:45:29;;;;;;;62.28;58.42;;;9.80;99.90;;;;;;5046558;28;20041;-74
2023/12/19 11:47:55;;;;;;;62.08;58.15;;;9.80;99.90;;;;;;5031686;28;20037;-73
2023/12/19 11:50:39;;;;;;;63.83;60.00;;;9.80;99.90;;;;;;5031406;28;20060;-73
2023/12/19 11:53:06;;;;;;;65.07;61.20;;;9.80;99.90;;;;;;5031619;28;20033;-72
2023/12/19 11:55:32;;;;;;;61.97;58.33;;;9.80;99.90;;;;;;5030080;28;20501;-74
2023/12/19 11:58:11;;;;;;;62.80;58.85;;;9.80;99.90;;;;;;5030829;28;20386;-74
2023/12/19 12:00:37;;;;;;;75.47;71.15;;;9.90;99.90;;;;;;5036569;28;20029;-74
2023/12/19 12:03:07;;;;;;;64.18;60.45;;;9.90;99.90;;;;;;5046089;28;20045;-73
2023/12/19 12:05:40;;;;;;;99.15;93.40;;;9.90;99.90;;;;;;5030341;28;20052;-72
2023/12/19 12:08:06;;;;;;;56.50;52.72;;;9.90;99.90;;;;;;5027185;28;20374;-72
2023/12/19 12:10:32;;;;;;;61.10;57.35;;;10.00;99.90;;;;;;5049276;28;20032;-72
2023/12/19 12:13:01;;;;;;;89.55;84.30;;;10.00;99.90;;;;;;5032926;28;20120;-72
2023/12/19 12:15:28;;;;;;;50.75;47.63;;;10.10;99.90;;;;;;5047430;28;20036;-72
2023/12/19 12:18:04;;;;;;;55.45;52.15;;;10.10;99.90;;;;;;5030218;28;20030;-71
2023/12/19 12:20:34;;;;;;;70.13;65.60;;;10.10;99.90;;;;;;5028068;28;20049;-71
2023/12/19 12:23:00;;;;;;;53.08;49.30;;;10.00;99.90;;;;;;5012734;28;20022;-72
2023/12/19 12:25:27;;;;;;;58.05;54.47;;;10.00;99.90;;;;;;5039723;28;20037;-72
2023/12/19 12:27:56;;;;;;;59.00;55.38;;;10.00;99.90;;;;;;5029685;28;20042;-72
2023/12/19 12:30:31;;;;;;;59.05;55.58;;;10.00;99.90;;;;;;5030673;28;20045;-73
2023/12/19 12:32:57;;;;;;;62.33;58.72;;;10.00;99.90;;;;;;5029925;28;20379;-72
2023/12/19 12:35:28;;;;;;;68.28;64.28;;;10.00;99.90;;;;;;5031045;28;20033;-72